Muelle Paraguana, Venezuela
Current Conditions -  °F | °C
As of 3:00 AM on Friday 24 Oct 2014 (Local Time) from TNCA Reporting Station
Scattered Clouds Scattered Clouds  
Wind Chill: 82°   Ceiling: Unl
Heat Index: 91°   Visibility: 6mi
Dew Point: 77°   Wind: 9mph
Humidity: 84%   Direction: 70°ENE
Pressure: 29.8"   Gusts: NA
Location:  11.78°N, 70.15°W
Report Text: TNCA 240700Z 07008KT 9999 SCT018 28/25 Q1009 A2981 NOSIG
Loading
Personal Weather Stations






























Interactive Weather Map
Tropical Storm Tracking
New forecast layout! Learn more

10-Day Weather Forecast

Advertisements
Track Severe Weather on mobile